Stoneyville, Illinois
Current Conditions -  °F | °C
As of 8:55 PM on Thursday 27 Nov 2014 (Local Time) from KVYS Reporting Station
Clear Clear  
Wind Chill:   Ceiling: Unl
Heat Index: 13°   Visibility: 10mi
Dew Point:   Wind: 7mph
Humidity: 77%   Direction: 290°WNW
Pressure: 30.44"   Gusts: NA
Location:  41.4349°N, 88.8687°W
Report Text: KVYS 280255Z AUTO 29006KT 10SM CLR M10/M14 A3044 RMK AO2 T11051138
Loading
Personal Weather Stations






























Interactive Weather Map New forecast layout! Learn more

10-Day Weather Forecast

Advertisements
Track Severe Weather on mobile